Time;durP1;ratioP1;P1;durP2;ratioP2;P2;SDS_P1;SDS_P2;PMS_P1;PMS_P2;Temp;Humidity;BMP_temperature;BMP_pressure;BME280_temperature;BME280_humidity;BME280_pressure;Samples;Min_cycle;Max_cycle;Signal;HPM_P1;HPM_P2
2023/05/22 00:03:23;;;;;;;10.65;9.65;;;;;;;20.21;49.01;99303.19;10349440;28;20241;-68
2023/05/22 00:08:26;;;;;;;11.23;10.13;;;;;;;21.16;47.61;99304.25;10349241;28;20261;-68
2023/05/22 00:13:30;;;;;;;11.32;10.23;;;;;;;19.89;50.12;99343.88;10355180;28;20247;-68
2023/05/22 00:18:32;;;;;;;11.75;10.55;;;;;;;20.01;49.99;99320.09;10354698;28;20352;-68
2023/05/22 00:23:34;;;;;;;14.68;10.40;;;;;;;19.95;49.73;99324.66;10355130;28;20896;-68
2023/05/22 00:28:35;;;;;;;12.85;11.55;;;;;;;19.57;50.71;99331.09;10353626;28;20244;-68
2023/05/22 00:33:37;;;;;;;12.50;11.20;;;;;;;20.43;49.09;99311.22;10357460;28;21025;-67
2023/05/22 00:38:39;;;;;;;12.25;11.05;;;;;;;20.48;49.43;99307.69;10352653;28;20252;-68
2023/05/22 00:43:40;;;;;;;12.63;11.32;;;;;;;20.41;49.65;99307.09;10356842;28;20819;-68
2023/05/22 00:48:42;;;;;;;11.95;10.68;;;;;;;20.91;49.13;99316.66;10356113;28;20253;-68
2023/05/22 00:53:45;;;;;;;12.63;11.07;;;;;;;20.43;49.69;99338.38;10355271;28;20237;-67
2023/05/22 00:58:47;;;;;;;12.68;11.32;;;;;;;19.85;50.66;99340.84;10356224;28;20280;-68
2023/05/22 01:03:49;;;;;;;12.45;11.18;;;;;;;20.17;50.70;99355.56;10354428;28;20252;-68
2023/05/22 01:08:51;;;;;;;13.00;11.70;;;;;;;19.35;51.63;99361.75;10357751;28;20343;-68
2023/05/22 01:14:22;;;;;;;12.93;11.47;;;;;;;17.52;55.15;99350.44;10354679;28;20320;-68
2023/05/22 01:19:39;;;;;;;12.57;11.37;;;;;;;18.22;55.01;99410.72;10321477;28;20340;-67
2023/05/22 01:24:56;;;;;;;12.50;11.20;;;;;;;18.84;53.88;99374.59;10353236;28;20237;-68
2023/05/22 01:30:34;;;;;;;12.83;11.33;;;;;;;18.97;51.88;99355.31;10352503;28;20319;-69
2023/05/22 01:35:39;;;;;;;11.43;10.23;;;;;;;18.86;53.11;99396.03;10353197;28;20225;-68
2023/05/22 01:40:43;;;;;;;11.47;10.37;;;;;;;19.54;51.59;99389.38;10352440;28;20726;-68
2023/05/22 01:45:45;;;;;;;11.67;10.57;;;;;;;18.72;54.56;99428.91;10352729;28;20241;-69
2023/05/22 01:50:50;;;;;;;11.57;10.37;;;;;;;18.00;55.41;99456.63;10354016;28;20244;-68
2023/05/22 01:56:04;;;;;;;13.48;10.15;;;;;;;19.05;52.90;99396.59;10351506;28;20252;-69
2023/05/22 02:01:08;;;;;;;13.38;10.93;;;;;;;19.75;52.00;99428.47;10355300;28;20228;-68
2023/05/22 02:06:13;;;;;;;13.33;10.93;;;;;;;18.11;54.75;99453.06;10350526;28;20320;-68
2023/05/22 02:11:16;;;;;;;11.93;10.67;;;;;;;18.90;53.81;99437.88;10355839;28;20261;-69
2023/05/22 02:16:20;;;;;;;11.20;10.10;;;;;;;19.43;51.96;99414.72;10354821;28;20264;-66
2023/05/22 02:21:22;;;;;;;11.83;10.63;;;;;;;18.86;53.24;99436.69;10350565;28;20234;-69
2023/05/22 02:26:24;;;;;;;11.50;10.32;;;;;;;18.43;54.83;99447.16;10351940;28;20225;-67
2023/05/22 02:31:25;;;;;;;12.73;10.37;;;;;;;18.55;54.71;99452.47;10349672;28;20324;-69
2023/05/22 02:36:29;;;;;;;12.13;10.80;;;;;;;18.72;54.62;99450.59;10349119;28;20229;-66
2023/05/22 02:41:31;;;;;;;10.67;9.57;;;;;;;18.07;55.91;99452.72;10351284;28;20258;-66
2023/05/22 02:46:33;;;;;;;12.23;10.77;;;;;;;17.55;57.17;99479.81;10352039;28;20234;-69
2023/05/22 02:51:34;;;;;;;11.17;10.03;;;;;;;17.11;57.90;99474.78;10353477;28;20240;-69
2023/05/22 02:56:36;;;;;;;10.73;9.63;;;;;;;18.71;54.84;99478.78;10333170;28;20319;-68
2023/05/22 03:01:38;;;;;;;11.07;10.07;;;;;;;18.59;54.43;99467.16;10353018;28;20260;-68
2023/05/22 03:06:40;;;;;;;11.53;10.33;;;;;;;17.46;57.58;99490.16;10353899;28;20737;-69
2023/05/22 03:11:42;;;;;;;11.00;9.50;;;;;;;18.99;54.32;99502.28;10351856;28;20256;-67
2023/05/22 03:16:44;;;;;;;11.47;10.00;;;;;;;17.69;55.68;99446.03;10351605;28;20261;-67
2023/05/22 03:21:47;;;;;;;12.90;10.67;;;;;;;17.05;58.20;99494.66;10347700;28;20708;-67
2023/05/22 03:26:48;;;;;;;11.67;10.43;;;;;;;18.49;55.14;99492.22;10350390;28;20233;-68
2023/05/22 03:31:50;;;;;;;13.70;10.23;;;;;;;18.13;55.12;99491.53;10349832;28;20225;-67
2023/05/22 03:36:52;;;;;;;10.43;9.13;;;;;;;18.21;54.15;99452.41;10350638;28;20324;-67
2023/05/22 03:41:53;;;;;;;12.03;10.10;;;;;;;18.71;53.56;99467.09;10349464;28;20229;-67
2023/05/22 03:46:55;;;;;;;12.20;9.70;;;;;;;18.76;53.25;99473.44;10351187;28;20232;-67
2023/05/22 03:51:57;;;;;;;10.30;9.27;;;;;;;17.55;55.34;99439.22;10355470;28;20231;-67
2023/05/22 03:56:58;;;;;;;11.50;9.97;;;;;;;18.61;54.42;99478.59;10358837;28;20621;-69
2023/05/22 04:02:00;;;;;;;11.87;10.67;;;;;;;18.35;54.58;99483.56;10359364;28;20260;-69
2023/05/22 04:07:02;;;;;;;11.50;10.30;;;;;;;18.69;53.96;99491.72;10359249;28;20260;-68
2023/05/22 04:12:04;;;;;;;11.00;9.90;;;;;;;18.86;53.34;99480.91;10356297;28;20248;-69
2023/05/22 04:17:06;;;;;;;11.50;10.30;;;;;;;18.17;55.02;99476.47;10358444;28;20261;-69
2023/05/22 04:22:07;;;;;;;11.87;9.87;;;;;;;17.37;56.79;99491.56;10358154;28;20241;-68
2023/05/22 04:27:09;;;;;;;11.87;10.53;;;;;;;17.76;55.93;99472.94;10359204;28;20287;-69
2023/05/22 04:32:10;;;;;;;12.67;11.27;;;;;;;17.09;57.40;99478.78;10356489;28;20233;-69
2023/05/22 04:37:14;;;;;;;12.10;10.33;;;;;;;17.57;55.92;99482.28;10355824;28;20244;-69
2023/05/22 04:42:16;;;;;;;11.33;10.07;;;;;;;17.98;55.29;99502.88;10354141;28;20351;-68
2023/05/22 04:47:18;;;;;;;12.93;11.20;;;;;;;18.47;54.53;99483.50;10357066;28;20720;-66
2023/05/22 04:52:20;;;;;;;11.90;10.57;;;;;;;17.79;55.79;99490.59;10355395;28;20232;-69
2023/05/22 04:57:24;;;;;;;12.00;10.70;;;;;;;18.70;53.51;99496.09;10356980;28;20226;-69
2023/05/22 05:02:26;;;;;;;12.00;10.70;;;;;;;18.85;54.23;99528.06;10356402;28;20256;-66
2023/05/22 05:07:28;;;;;;;13.63;12.23;;;;;;;18.84;54.30;99513.69;10356233;28;20312;-67
2023/05/22 05:12:29;;;;;;;12.37;10.93;;;;;;;17.57;56.20;99442.50;10356331;28;20340;-68
2023/05/22 05:17:31;;;;;;;12.80;10.57;;;;;;;17.68;57.19;99501.22;10352018;28;20624;-69
2023/05/22 05:22:33;;;;;;;11.50;10.23;;;;;;;17.58;57.01;99478.50;10348564;28;20236;-67
2023/05/22 05:27:35;;;;;;;12.13;9.83;;;;;;;19.44;52.99;99516.78;10342665;28;20609;-69
2023/05/22 05:32:37;;;;;;;12.10;9.90;;;;;;;18.88;54.48;99486.91;10352696;28;20228;-68
2023/05/22 05:37:38;;;;;;;10.17;9.13;;;;;;;19.93;52.39;99507.91;10355138;28;20327;-69
2023/05/22 05:42:40;;;;;;;11.07;9.98;;;;;;;19.97;52.04;99462.88;10349438;28;20243;-68
2023/05/22 05:47:42;;;;;;;13.97;11.07;;;;;;;19.06;53.19;99411.81;10353757;28;20237;-66
2023/05/22 05:52:43;;;;;;;10.63;9.52;;;;;;;19.17;53.58;99429.88;10352261;28;20239;-67
2023/05/22 05:57:45;;;;;;;12.07;10.77;;;;;;;19.36;53.42;99452.91;10352072;28;20805;-68
2023/05/22 06:02:47;;;;;;;11.77;10.57;;;;;;;19.66;52.58;99469.88;10352106;28;20243;-67
2023/05/22 06:07:51;;;;;;;12.00;10.77;;;;;;;19.58;52.35;99462.97;10351359;28;20228;-67
2023/05/22 06:12:53;;;;;;;11.95;10.75;;;;;;;18.81;54.18;99459.13;10351739;28;20256;-68
2023/05/22 06:17:55;;;;;;;11.37;10.17;;;;;;;18.54;54.70;99464.38;10352146;28;20241;-67
2023/05/22 06:22:56;;;;;;;11.48;10.30;;;;;;;17.92;55.36;99444.31;10347500;28;20233;-67
2023/05/22 06:27:58;;;;;;;10.85;9.75;;;;;;;18.86;53.94;99472.78;10353785;28;20235;-67
2023/05/22 06:32:59;;;;;;;11.07;9.90;;;;;;;19.83;51.84;99476.03;10348083;28;20231;-67
2023/05/22 06:38:01;;;;;;;11.35;9.88;;;;;;;19.78;52.14;99481.41;10352618;28;20623;-68
2023/05/22 06:43:03;;;;;;;12.50;11.20;;;;;;;18.86;54.11;99467.38;10352450;28;20243;-67
2023/05/22 06:48:05;;;;;;;12.97;11.40;;;;;;;19.31;52.25;99420.28;10351584;28;20406;-68
2023/05/22 06:53:07;;;;;;;12.70;11.27;;;;;;;19.60;52.47;99466.25;10351915;28;20230;-67
2023/05/22 06:58:08;;;;;;;11.90;10.70;;;;;;;20.15;51.57;99494.31;10352163;28;20229;-68
2023/05/22 07:03:10;;;;;;;12.10;10.80;;;;;;;20.52;50.93;99433.81;10352375;28;20712;-68
2023/05/22 07:08:12;;;;;;;12.05;10.85;;;;;;;20.23;51.81;99431.41;10348954;28;20991;-66
2023/05/22 07:13:14;;;;;;;11.18;10.07;;;;;;;20.55;51.68;99410.72;10333651;28;20312;-67
2023/05/22 07:18:16;;;;;;;10.77;9.25;;;;;;;19.87;52.55;99431.03;10323179;28;20751;-68
2023/05/22 07:23:17;;;;;;;11.18;9.55;;;;;;;20.10;52.42;99418.22;10326263;28;20381;-68
2023/05/22 07:28:19;;;;;;;11.25;9.20;;;;;;;20.88;51.27;99436.81;10327304;28;20332;-68
2023/05/22 07:33:21;;;;;;;11.07;9.98;;;;;;;20.77;52.12;99430.50;10327294;28;20592;-68
2023/05/22 07:38:22;;;;;;;10.52;9.45;;;;;;;21.56;50.33;99407.00;10329299;28;20341;-68
2023/05/22 07:43:24;;;;;;;11.52;9.45;;;;;;;21.16;50.84;99405.72;10330300;28;20237;-68
2023/05/22 07:48:26;;;;;;;11.00;9.10;;;;;;;20.33;52.31;99400.81;10315908;28;20721;-67
2023/05/22 07:53:27;;;;;;;12.63;9.30;;;;;;;20.91;51.42;99409.13;10318053;28;20210;-67
2023/05/22 07:58:29;;;;;;;12.25;9.40;;;;;;;20.31;51.92;99413.81;10320765;28;20312;-68
2023/05/22 08:03:31;;;;;;;10.05;8.70;;;;;;;20.30;51.78;99385.00;10318708;28;20293;-68
2023/05/22 08:08:33;;;;;;;10.02;8.95;;;;;;;21.09;51.28;99423.34;10326466;28;20246;-68
2023/05/22 08:13:37;;;;;;;13.63;10.32;;;;;;;20.20;52.20;99390.38;10324038;28;20238;-68
2023/05/22 08:18:39;;;;;;;14.55;10.82;;;;;;;20.59;51.49;99407.25;10320886;28;20234;-68
2023/05/22 08:23:41;;;;;;;11.55;9.65;;;;;;;20.93;50.76;99354.47;10319539;28;20729;-68
2023/05/22 08:28:43;;;;;;;9.57;8.55;;;;;;;21.57;49.59;99377.88;10322258;28;20824;-68
2023/05/22 08:33:45;;;;;;;9.88;8.88;;;;;;;20.99;50.75;99343.34;10325319;28;20249;-68
2023/05/22 08:38:46;;;;;;;11.15;8.65;;;;;;;21.20;50.91;99371.44;10323822;28;20238;-68
2023/05/22 08:43:48;;;;;;;12.32;9.52;;;;;;;20.42;51.49;99353.03;10327944;28;20333;-67
2023/05/22 08:48:50;;;;;;;9.25;8.27;;;;;;;21.52;50.17;99345.19;10320826;28;20338;-68
2023/05/22 08:53:57;;;;;;;9.57;8.38;;;;;;;21.34;50.85;99358.19;10328165;28;20717;-68
2023/05/22 09:04:08;;;;;;;10.30;8.43;;;;;;;22.03;49.64;99336.31;10313527;28;20321;-37
2023/05/22 09:09:11;;;;;;;9.40;8.40;;;;;;;22.32;50.19;99361.13;10318237;28;20236;-37
2023/05/22 09:14:14;;;;;;;11.10;9.40;;;;;;;22.36;49.35;99356.75;10310111;28;20357;-37
2023/05/22 09:19:16;;;;;;;10.75;9.25;;;;;;;22.55;49.27;99332.47;10316443;28;20337;-37
2023/05/22 09:24:18;;;;;;;12.48;9.73;;;;;;;22.38;48.98;99332.75;10314689;28;20785;-37
2023/05/22 09:29:21;;;;;;;11.82;9.40;;;;;;;22.96;49.66;99348.75;10312811;28;20252;-37
2023/05/22 09:34:27;;;;;;;16.77;9.52;;;;;;;22.68;48.95;99260.19;10312593;28;20242;-35
2023/05/22 09:39:42;;;;;;;10.95;9.63;;;;;;;22.81;48.23;99229.59;10316749;28;20206;-38
2023/05/22 09:44:48;;;;;;;10.43;8.70;;;;;;;23.42;47.46;99263.13;10314880;28;20234;-37
2023/05/22 09:49:50;;;;;;;10.98;9.23;;;;;;;23.06;48.11;99238.75;10315721;28;20229;-38
2023/05/22 09:54:55;;;;;;;11.80;9.68;;;;;;;23.23;48.29;99282.91;10313319;28;20695;-37
2023/05/22 09:59:59;;;;;;;10.93;9.32;;;;;;;24.27;46.89;99241.97;10309183;28;20245;-37
2023/05/22 10:05:05;;;;;;;11.25;9.80;;;;;;;23.57;46.04;99205.69;10315681;28;20249;-37
2023/05/22 10:10:10;;;;;;;11.55;10.27;;;;;;;24.66;45.91;99225.41;10313683;28;20330;-38
2023/05/22 10:15:12;;;;;;;11.07;9.82;;;;;;;24.77;45.64;99184.25;10295157;28;20241;-37
2023/05/22 10:20:15;;;;;;;13.23;10.32;;;;;;;24.22;45.65;99203.75;10313786;28;20237;-36
2023/05/22 10:25:17;;;;;;;11.15;9.57;;;;;;;24.46;44.19;99169.03;10314412;28;20317;-37
2023/05/22 10:30:28;;;;;;;11.07;9.98;;;;;;;25.67;43.75;99176.84;10313973;28;20265;-37
2023/05/22 10:35:51;;;;;;;10.98;9.05;;;;;;;25.87;44.23;99153.78;10312810;28;20236;-38
2023/05/22 10:40:54;;;;;;;10.70;9.60;;;;;;;24.78;45.83;99159.34;10306567;28;20336;-37
2023/05/22 10:46:03;;;;;;;11.70;9.60;;;;;;;25.84;44.31;99126.97;10312500;28;20241;-38
2023/05/22 10:51:07;;;;;;;10.55;9.45;;;;;;;25.12;44.25;99095.34;10313143;28;20240;-38
2023/05/22 10:56:15;;;;;;;11.90;9.60;;;;;;;26.02;44.65;99098.66;10313506;28;20332;-38
2023/05/22 11:06:34;;;;;;;13.65;9.30;;;;;;;23.30;48.05;99218.97;10388397;28;21397;-67
2023/05/22 11:11:36;;;;;;;10.30;9.20;;;;;;;24.67;46.29;99149.63;10267559;28;20313;-67
2023/05/22 11:16:38;;;;;;;11.00;9.23;;;;;;;23.76;48.50;99194.06;10261340;28;20233;-67
2023/05/22 11:21:45;;;;;;;11.32;9.65;;;;;;;24.67;46.79;99131.28;10258895;28;20235;-67
2023/05/22 11:27:01;;;;;;;11.20;10.00;;;;;;;23.76;47.10;99158.56;10265645;28;20226;-68
2023/05/22 11:32:03;;;;;;;10.73;9.63;;;;;;;25.15;45.83;99126.75;10256050;28;20238;-67
2023/05/22 11:37:05;;;;;;;10.52;9.43;;;;;;;25.06;44.78;99140.31;10286629;28;20242;-68
2023/05/22 11:42:06;;;;;;;9.70;8.70;;;;;;;24.51;44.75;99140.78;10296522;28;20325;-68
2023/05/22 11:47:08;;;;;;;9.73;7.78;;;;;;;25.60;42.52;99099.75;10294214;28;20277;-68
2023/05/22 11:52:10;;;;;;;11.13;8.25;;;;;;;24.92;42.75;99069.13;10278708;28;20227;-67
2023/05/22 11:57:12;;;;;;;11.90;8.68;;;;;;;24.80;43.48;99088.72;10298703;28;20230;-68
2023/05/22 12:02:20;;;;;;;8.85;7.93;;;;;;;25.19;42.98;99112.19;10291220;28;20318;-68
2023/05/22 12:07:22;;;;;;;9.75;8.57;;;;;;;25.75;43.66;99106.88;10298769;28;20258;-68
2023/05/22 12:12:24;;;;;;;9.40;8.45;;;;;;;25.29;42.86;99122.19;10304477;28;20849;-68
2023/05/22 12:17:27;;;;;;;9.23;8.30;;;;;;;25.44;43.28;99116.44;10280122;28;20325;-67
2023/05/22 12:22:29;;;;;;;8.98;8.07;;;;;;;25.33;42.06;99111.44;10275860;28;20230;-68
2023/05/22 12:27:30;;;;;;;8.60;7.75;;;;;;;25.74;42.34;99081.41;10241931;28;20242;-68
2023/05/22 12:32:34;;;;;;;10.20;7.78;;;;;;;26.71;42.33;99067.59;10261933;28;20223;-67
2023/05/22 12:37:35;;;;;;;10.48;8.10;;;;;;;26.17;41.45;99099.47;10270771;28;20300;-68
2023/05/22 12:42:37;;;;;;;9.93;8.70;;;;;;;26.63;40.78;99082.03;10266825;28;20346;-68
2023/05/22 12:47:39;;;;;;;10.20;7.60;;;;;;;26.19;41.09;99080.78;10271435;28;20266;-68
2023/05/22 12:52:41;;;;;;;8.95;7.18;;;;;;;24.26;42.00;99139.19;10238226;28;20955;-68
2023/05/22 12:57:42;;;;;;;10.95;6.97;;;;;;;25.93;41.12;99069.53;10264003;28;20605;-68
2023/05/22 13:02:44;;;;;;;8.45;6.93;;;;;;;25.38;39.87;99136.81;10269732;28;20262;-68
2023/05/22 13:07:46;;;;;;;9.23;6.82;;;;;;;25.57;39.27;99112.09;10273483;28;20243;-68
2023/05/22 13:12:50;;;;;;;8.00;6.68;;;;;;;26.06;40.27;99096.13;10276525;28;20345;-68
2023/05/22 13:17:52;;;;;;;6.90;6.20;;;;;;;25.25;40.39;99111.03;10273204;28;20285;-67
2023/05/22 13:22:53;;;;;;;7.82;7.03;;;;;;;25.55;40.79;99095.16;10270664;28;20237;-67
2023/05/22 13:27:57;;;;;;;7.85;7.05;;;;;;;24.71;41.39;99115.09;10267538;28;20242;-67
2023/05/22 13:32:59;;;;;;;9.48;6.90;;;;;;;25.92;40.90;99068.72;10264493;28;20717;-67
2023/05/22 13:38:01;;;;;;;8.63;6.72;;;;;;;25.93;40.00;99036.66;10263786;28;20725;-67
2023/05/22 13:43:02;;;;;;;7.43;6.63;;;;;;;26.33;39.75;99026.78;10263524;28;20325;-67
2023/05/22 13:48:04;;;;;;;11.00;7.50;;;;;;;25.95;39.95;99040.72;10270778;28;20328;-68
2023/05/22 13:53:24;;;;;;;9.60;6.97;;;;;;;26.34;39.91;99042.09;10266355;28;20281;-68
2023/05/22 13:58:26;;;;;;;10.52;7.18;;;;;;;26.04;40.68;99043.53;10272174;28;20317;-68
2023/05/22 14:03:27;;;;;;;9.52;6.68;;;;;;;26.13;40.30;99035.41;10262874;28;20243;-67
2023/05/22 14:08:29;;;;;;;9.00;7.35;;;;;;;26.12;40.94;99034.59;10259233;28;20231;-67
2023/05/22 14:13:31;;;;;;;10.18;7.18;;;;;;;25.32;40.70;99068.75;10267539;28;20630;-68
2023/05/22 14:18:33;;;;;;;8.45;6.60;;;;;;;26.22;40.23;99066.50;10265067;28;20247;-67
2023/05/22 14:23:34;;;;;;;8.02;7.22;;;;;;;26.23;40.34;99079.06;10265274;28;20250;-66
2023/05/22 14:28:36;;;;;;;9.30;7.20;;;;;;;25.55;40.28;99070.50;10269131;28;20249;-67
2023/05/22 14:33:38;;;;;;;8.23;7.10;;;;;;;26.85;39.31;99023.63;10267522;28;20235;-67
2023/05/22 14:38:39;;;;;;;8.13;7.32;;;;;;;26.46;40.52;99047.03;10268851;28;20253;-67
2023/05/22 14:43:41;;;;;;;7.35;6.65;;;;;;;26.50;39.77;99069.16;10276050;28;20323;-67
2023/05/22 14:48:43;;;;;;;7.53;6.82;;;;;;;26.56;39.46;99052.28;10275971;28;20688;-67
2023/05/22 14:53:44;;;;;;;6.85;6.18;;;;;;;27.27;38.60;99018.75;10271537;28;20234;-71
2023/05/22 14:58:46;;;;;;;7.07;6.18;;;;;;;26.24;39.88;99088.13;10269326;28;20242;-67
2023/05/22 15:05:25;;;;;;;7.60;6.60;;;;;;;24.77;41.21;99096.72;10404098;28;20850;-68
2023/05/22 15:10:27;;;;;;;7.03;6.32;;;;;;;24.69;41.41;99129.06;10326861;28;20316;-66
2023/05/22 15:15:29;;;;;;;8.07;6.25;;;;;;;24.88;42.39;99120.88;10357256;28;20656;-66
2023/05/22 15:20:31;;;;;;;7.75;6.07;;;;;;;26.11;40.12;99060.38;10351245;28;20367;-67
2023/05/22 15:25:35;;;;;;;6.55;5.90;;;;;;;25.12;40.79;99111.75;10348882;28;20243;-67
2023/05/22 15:30:37;;;;;;;7.05;6.28;;;;;;;25.42;39.98;99066.66;10328637;28;20230;-66
2023/05/22 15:35:40;;;;;;;7.57;5.95;;;;;;;25.57;39.57;99090.19;10326253;28;20643;-66
2023/05/22 15:40:43;;;;;;;7.18;6.05;;;;;;;25.89;38.67;99099.47;10351580;28;20246;-66
2023/05/22 15:45:48;;;;;;;6.80;6.10;;;;;;;24.61;39.78;99183.59;10343186;28;20312;-67
2023/05/22 15:50:49;;;;;;;10.00;6.45;;;;;;;24.34;40.27;99226.84;10348280;28;20565;-68
2023/05/22 15:55:51;;;;;;;10.02;6.25;;;;;;;23.73;41.75;99227.41;10348984;28;20233;-68
2023/05/22 16:00:56;;;;;;;10.00;7.07;;;;;;;21.25;47.20;99248.22;10351722;28;20280;-68
2023/05/22 16:05:58;;;;;;;7.70;6.70;;;;;;;21.35;47.41;99278.16;10347850;28;20245;-66
2023/05/22 16:11:00;;;;;;;7.22;6.50;;;;;;;20.73;47.14;99336.09;10344480;28;20696;-68
2023/05/22 16:16:04;;;;;;;8.20;6.72;;;;;;;19.86;48.65;99366.94;10322764;28;20624;-67
2023/05/22 16:21:06;;;;;;;6.53;5.93;;;;;;;19.64;50.35;99383.28;10290882;28;20256;-67
2023/05/22 16:26:08;;;;;;;7.22;6.07;;;;;;;18.98;51.81;99375.13;10262437;28;20315;-67
2023/05/22 16:31:11;;;;;;;7.75;6.38;;;;;;;18.64;53.55;99377.84;10298582;28;20324;-68
2023/05/22 16:36:13;;;;;;;7.47;6.25;;;;;;;18.47;54.40;99372.44;10319726;28;20237;-70
2023/05/22 16:41:15;;;;;;;8.27;6.43;;;;;;;18.78;54.58;99357.47;10311473;28;20253;-71
2023/05/22 16:46:17;;;;;;;7.72;6.82;;;;;;;19.02;54.48;99349.13;10292145;28;20226;-70
2023/05/22 16:51:19;;;;;;;8.85;6.60;;;;;;;19.81;52.07;99331.59;10302694;28;20853;-70
2023/05/22 16:56:21;;;;;;;8.00;7.20;;;;;;;19.89;53.60;99347.41;10316495;28;20655;-69
2023/05/22 17:01:23;;;;;;;8.30;6.43;;;;;;;19.87;52.56;99370.47;10315959;28;20248;-67
2023/05/22 17:06:26;;;;;;;8.07;6.60;;;;;;;19.84;52.65;99360.09;10294785;28;20329;-68
2023/05/22 17:11:28;;;;;;;8.75;6.72;;;;;;;19.40;53.07;99355.56;10291157;28;20253;-68
2023/05/22 17:16:30;;;;;;;6.95;6.25;;;;;;;18.34;54.80;99376.31;10312053;28;20229;-70
2023/05/22 17:21:32;;;;;;;7.57;6.88;;;;;;;19.14;54.29;99405.97;10317917;28;20226;-69
2023/05/22 17:26:33;;;;;;;8.27;6.53;;;;;;;20.10;52.43;99361.19;10315354;28;20240;-66
2023/05/22 17:31:35;;;;;;;8.23;6.45;;;;;;;19.46;53.30;99399.84;10320028;28;20253;-67
2023/05/22 17:36:40;;;;;;;6.82;6.07;;;;;;;20.04;52.93;99400.22;10313336;28;20704;-68
2023/05/22 17:41:45;;;;;;;7.35;6.55;;;;;;;21.46;49.73;99319.88;10318510;28;20238;-67
2023/05/22 17:46:48;;;;;;;8.18;6.93;;;;;;;22.16;49.27;99336.56;10288182;28;20223;-66
2023/05/22 17:51:49;;;;;;;7.50;6.72;;;;;;;21.64;48.71;99342.22;10303410;28;20238;-67
2023/05/22 17:56:51;;;;;;;8.98;6.72;;;;;;;20.66;51.02;99417.88;10314395;28;20332;-67
2023/05/22 18:01:53;;;;;;;6.88;6.20;;;;;;;20.88;51.15;99414.25;10314013;28;20244;-69
2023/05/22 18:06:54;;;;;;;8.43;6.50;;;;;;;21.86;48.97;99374.66;10309990;28;20240;-67
2023/05/22 18:11:57;;;;;;;8.38;7.40;;;;;;;21.82;48.45;99362.69;10312816;28;20234;-67
2023/05/22 18:16:59;;;;;;;7.63;6.82;;;;;;;21.21;49.62;99397.59;10311632;28;20618;-66
2023/05/22 18:22:01;;;;;;;9.73;8.02;;;;;;;21.23;50.63;99395.41;10316941;28;20715;-68
2023/05/22 18:27:03;;;;;;;9.13;7.75;;;;;;;20.84;50.76;99393.03;10316156;28;20236;-68
2023/05/22 18:32:08;;;;;;;9.73;7.63;;;;;;;21.38;50.94;99367.47;10311106;28;20234;-68
2023/05/22 18:37:09;;;;;;;9.00;8.10;;;;;;;22.76;48.03;99327.81;10313617;28;20270;-70
2023/05/22 18:42:12;;;;;;;9.25;8.18;;;;;;;21.48;50.46;99387.66;10314827;28;20238;-68
2023/05/22 18:47:13;;;;;;;12.20;8.27;;;;;;;20.75;51.67;99418.22;10280218;28;20246;-67
2023/05/22 18:52:15;;;;;;;9.73;8.02;;;;;;;21.95;49.74;99373.09;10268714;28;20258;-63
2023/05/22 18:57:17;;;;;;;9.25;7.97;;;;;;;23.11;47.12;99338.88;10269539;28;20317;-68
2023/05/22 19:02:20;;;;;;;9.30;8.30;;;;;;;23.40;46.51;99295.38;10267693;28;20238;-69
2023/05/22 19:07:22;;;;;;;11.75;8.10;;;;;;;23.20;46.83;99329.03;10274323;28;20234;-69
2023/05/22 19:12:27;;;;;;;8.18;7.28;;;;;;;22.56;47.40;99349.69;10301268;28;20297;-67
2023/05/22 19:17:28;;;;;;;9.57;7.63;;;;;;;23.19;46.60;99352.75;10310270;28;20264;-67
2023/05/22 19:22:30;;;;;;;9.00;7.88;;;;;;;21.51;48.98;99433.38;10314963;28;20229;-68
2023/05/22 19:27:32;;;;;;;8.45;7.18;;;;;;;21.64;49.14;99405.66;10305646;28;20314;-68
2023/05/22 19:32:34;;;;;;;9.70;8.70;;;;;;;20.68;50.34;99462.78;10311346;28;20614;-67
2023/05/22 19:37:36;;;;;;;9.30;7.88;;;;;;;21.21;49.57;99432.94;10311552;28;20721;-67
2023/05/22 19:42:38;;;;;;;9.18;7.75;;;;;;;22.31;47.77;99360.28;10306968;28;20261;-66
2023/05/22 19:47:40;;;;;;;9.73;8.43;;;;;;;20.01;51.90;99466.75;10267389;28;20246;-68
2023/05/22 19:52:42;;;;;;;10.35;8.30;;;;;;;19.89;52.56;99499.47;10277753;28;20336;-70
2023/05/22 19:57:44;;;;;;;9.70;8.52;;;;;;;20.23;51.18;99509.38;10311611;28;20242;-68
2023/05/22 20:02:45;;;;;;;9.18;8.27;;;;;;;20.06;50.59;99509.44;10311151;28;20724;-67
2023/05/22 20:07:47;;;;;;;9.48;8.57;;;;;;;21.14;49.44;99469.63;10266188;28;21012;-66
2023/05/22 20:12:53;;;;;;;10.38;9.30;;;;;;;21.05;49.56;99453.81;10306761;28;20261;-68
2023/05/22 20:17:56;;;;;;;11.43;8.57;;;;;;;21.76;48.80;99479.78;10316525;28;20920;-63
2023/05/22 20:22:58;;;;;;;10.98;9.30;;;;;;;21.49;49.41;99466.34;10324645;28;20300;-67
2023/05/22 20:28:01;;;;;;;10.18;9.18;;;;;;;19.61;52.73;99540.38;10311995;28;20253;-68
2023/05/22 20:33:03;;;;;;;10.90;9.80;;;;;;;21.22;50.56;99518.94;10311569;28;20233;-67
2023/05/22 20:38:07;;;;;;;10.80;9.55;;;;;;;20.46;51.34;99516.38;10321587;28;20867;-68
2023/05/22 20:43:12;;;;;;;11.07;9.82;;;;;;;21.62;50.48;99514.00;10315135;28;20305;-67
2023/05/22 20:48:15;;;;;;;10.98;9.88;;;;;;;21.99;48.99;99474.97;10314621;28;20238;-68
2023/05/22 20:53:17;;;;;;;11.32;10.20;;;;;;;20.64;50.74;99534.22;10307148;28;20234;-68
2023/05/22 20:58:18;;;;;;;11.00;9.90;;;;;;;22.11;49.49;99486.44;10318371;28;20696;-67
2023/05/22 21:03:20;;;;;;;11.52;9.77;;;;;;;22.84;47.15;99447.25;10323917;23;20233;-35
2023/05/22 21:08:25;;;;;;;10.93;9.82;;;;;;;22.34;47.49;99443.41;10322748;28;20210;-35
2023/05/22 21:13:27;;;;;;;11.05;9.02;;;;;;;20.73;50.44;99531.84;10324662;28;20643;-36
2023/05/22 21:18:28;;;;;;;11.35;10.13;;;;;;;19.94;52.53;99594.56;10330819;23;20663;-37
2023/05/22 21:23:30;;;;;;;12.45;11.25;;;;;;;20.10;52.66;99548.56;10311463;28;20227;-36
2023/05/22 21:28:32;;;;;;;13.77;11.52;;;;;;;19.30;54.36;99550.72;10317164;28;20815;-35
2023/05/22 21:33:33;;;;;;;12.48;11.18;;;;;;;19.86;53.78;99594.19;10318104;28;20237;-35
2023/05/22 21:38:35;;;;;;;13.10;11.80;;;;;;;21.85;49.47;99512.75;10309896;28;20238;-35
2023/05/22 21:43:37;;;;;;;11.40;10.23;;;;;;;21.20;49.82;99504.75;10318159;28;20696;-35
2023/05/22 21:48:39;;;;;;;10.65;9.55;;;;;;;22.14;48.13;99506.88;10314534;28;20242;-35
2023/05/22 21:53:45;;;;;;;10.65;9.55;;;;;;;22.18;48.13;99512.59;10315393;28;20239;-35
2023/05/22 21:58:47;;;;;;;11.65;10.55;;;;;;;22.34;47.72;99508.84;10313085;28;20328;-35
2023/05/22 22:03:49;;;;;;;10.10;9.10;;;;;;;22.13;47.80;99546.94;10309090;28;20292;-35
2023/05/22 22:08:52;;;;;;;10.88;9.88;;;;;;;21.81;48.01;99524.44;10321537;28;20250;-35
2023/05/22 22:13:53;;;;;;;11.15;9.93;;;;;;;21.56;48.83;99566.78;10313141;28;20642;-35
2023/05/22 22:18:56;;;;;;;11.73;10.52;;;;;;;20.50;50.98;99623.50;10325726;28;20312;-35
2023/05/22 22:23:58;;;;;;;12.82;11.43;;;;;;;21.91;48.80;99568.91;10318299;28;20324;-35
2023/05/22 22:29:00;;;;;;;12.70;11.50;;;;;;;21.64;49.50;99562.75;10309217;28;20241;-35
2023/05/22 22:34:04;;;;;;;11.93;10.73;;;;;;;21.46;49.57;99573.00;10320850;28;20269;-35
2023/05/22 22:39:06;;;;;;;12.45;11.25;;;;;;;22.18;48.75;99567.91;10324820;28;20225;-35
2023/05/22 22:44:08;;;;;;;11.85;10.65;;;;;;;22.25;48.55;99543.97;10313110;28;20246;-35
2023/05/22 22:49:09;;;;;;;12.43;10.65;;;;;;;21.58;48.78;99589.94;10326894;28;20294;-35
2023/05/22 22:54:13;;;;;;;11.18;10.07;;;;;;;21.12;49.87;99591.47;10305267;28;20229;-38
2023/05/22 22:59:16;;;;;;;12.73;11.32;;;;;;;20.56;50.87;99575.47;10318685;28;20233;-35
2023/05/22 23:04:17;;;;;;;13.98;12.55;;;;;;;18.54;55.45;99632.34;10317762;28;20720;-35
2023/05/22 23:09:19;;;;;;;16.88;13.27;;;;;;;19.02;54.99;99634.63;10313212;28;20316;-35
2023/05/22 23:14:21;;;;;;;15.95;14.25;;;;;;;18.51;56.30;99663.47;10311705;28;20284;-35
2023/05/22 23:19:23;;;;;;;15.57;13.98;;;;;;;20.45;52.40;99610.69;10310709;28;20238;-35
2023/05/22 23:24:25;;;;;;;15.65;14.05;;;;;;;20.71;50.92;99594.63;10317650;28;20242;-35